Time;durP1;ratioP1;P1;durP2;ratioP2;P2;SDS_P1;SDS_P2;PMS_P1;PMS_P2;Temp;Humidity;BMP_temperature;BMP_pressure;BME280_temperature;BME280_humidity;BME280_pressure;Samples;Min_cycle;Max_cycle;Signal;HPM_P1;HPM_P2
2020/12/04 00:02:02;;;;;;;53.13;20.88;;;;;;;-2.73;77.32;94282.94;5009223;28;20045;-69
2020/12/04 00:04:28;;;;;;;57.70;20.55;;;;;;;-2.73;77.28;94277.59;5009353;28;20041;-68
2020/12/04 00:06:54;;;;;;;55.33;22.15;;;;;;;-2.73;77.35;94266.94;5009017;28;20441;-69
2020/12/04 00:09:21;;;;;;;52.53;21.70;;;;;;;-2.75;77.43;94264.56;5012717;28;20397;-69
2020/12/04 00:11:47;;;;;;;57.17;20.45;;;;;;;-2.76;77.46;94272.84;5013060;28;20468;-69
2020/12/04 00:14:13;;;;;;;55.90;21.77;;;;;;;-2.74;77.35;94286.69;5012576;28;20049;-69
2020/12/04 00:16:41;;;;;;;47.65;18.85;;;;;;;-2.71;77.13;94272.78;5013363;28;20046;-68
2020/12/04 00:19:07;;;;;;;55.75;21.67;;;;;;;-2.74;77.16;94265.38;5012452;28;20111;-69
2020/12/04 00:21:33;;;;;;;49.42;20.80;;;;;;;-2.74;77.21;94260.81;5013180;28;20048;-69
2020/12/04 00:23:59;;;;;;;57.50;20.48;;;;;;;-2.71;77.13;94259.47;5012515;28;20038;-69
2020/12/04 00:26:25;;;;;;;52.67;20.02;;;;;;;-2.69;76.94;94250.09;5012557;28;20046;-68
2020/12/04 00:28:52;;;;;;;55.90;21.67;;;;;;;-2.66;76.61;94251.41;5012910;28;20052;-69
2020/12/04 00:31:19;;;;;;;53.67;20.77;;;;;;;-2.64;76.47;94255.38;5012444;28;20055;-68
2020/12/04 00:33:46;;;;;;;52.85;20.00;;;;;;;-2.62;76.47;94252.41;5012785;28;20050;-68
2020/12/04 00:36:12;;;;;;;52.17;20.10;;;;;;;-2.60;76.29;94250.28;5012420;28;20046;-69
2020/12/04 00:38:39;;;;;;;51.35;20.15;;;;;;;-2.62;76.53;94239.09;5012689;28;20053;-69
2020/12/04 00:41:05;;;;;;;56.83;21.75;;;;;;;-2.64;76.62;94227.94;5012408;28;20042;-69
2020/12/04 00:43:31;;;;;;;55.10;19.95;;;;;;;-2.67;76.61;94226.63;5012711;28;20050;-68
2020/12/04 00:45:57;;;;;;;50.05;19.15;;;;;;;-2.65;76.65;94242.34;5012573;28;20049;-69
2020/12/04 00:48:23;;;;;;;52.33;20.15;;;;;;;-2.57;76.40;94248.88;5011991;28;20057;-68
2020/12/04 00:50:51;;;;;;;48.58;20.05;;;;;;;-2.51;76.29;94256.53;5012525;28;20046;-69
2020/12/04 00:53:17;;;;;;;54.97;20.92;;;;;;;-2.45;76.22;94255.41;5011391;28;20937;-69
2020/12/04 00:55:43;;;;;;;50.85;21.15;;;;;;;-2.42;76.14;94251.34;5012443;28;20050;-69
2020/12/04 00:58:09;;;;;;;48.22;18.67;;;;;;;-2.46;75.93;94229.81;5011918;28;20128;-69
2020/12/04 01:00:34;;;;;;;53.40;20.35;;;;;;;-2.52;76.09;94220.31;5012281;28;20048;-69
2020/12/04 01:03:01;;;;;;;47.53;20.30;;;;;;;-2.53;76.28;94217.94;5012192;28;20103;-69
2020/12/04 01:05:27;;;;;;;58.78;21.20;;;;;;;-2.54;76.13;94219.81;5012032;28;20421;-69
2020/12/04 01:07:54;;;;;;;51.22;19.70;;;;;;;-2.57;76.12;94204.38;5012204;28;20096;-69
2020/12/04 01:10:20;;;;;;;52.03;20.17;;;;;;;-2.61;76.33;94195.41;5011703;28;20050;-69
2020/12/04 01:12:46;;;;;;;51.10;20.58;;;;;;;-2.60;76.32;94201.53;5011681;28;20060;-69
2020/12/04 01:15:12;;;;;;;54.75;20.95;;;;;;;-2.59;76.29;94206.56;5011470;28;20042;-69
2020/12/04 01:17:37;;;;;;;56.28;20.92;;;;;;;-2.57;76.08;94217.69;5010877;28;20060;-69
2020/12/04 01:20:04;;;;;;;57.85;20.75;;;;;;;-2.55;75.95;94215.56;5010402;28;20042;-69
2020/12/04 01:22:31;;;;;;;56.65;21.77;;;;;;;-2.58;76.07;94210.78;5011781;28;20519;-69
2020/12/04 01:24:58;;;;;;;47.35;20.25;;;;;;;-2.62;76.19;94215.09;5027729;28;20489;-69
2020/12/04 01:27:24;;;;;;;54.53;21.52;;;;;;;-2.60;76.31;94212.97;5031178;28;20049;-69
2020/12/04 01:29:50;;;;;;;49.78;19.50;;;;;;;-2.58;76.23;94200.13;5031295;28;20038;-69
2020/12/04 01:32:16;;;;;;;51.35;19.90;;;;;;;-2.56;76.36;94205.97;5031028;28;20076;-69
2020/12/04 01:34:42;;;;;;;50.20;19.80;;;;;;;-2.57;76.29;94193.72;5031443;28;20076;-68
2020/12/04 01:37:08;;;;;;;54.53;21.17;;;;;;;-2.58;76.41;94184.16;5030890;28;20119;-69
2020/12/04 01:39:34;;;;;;;50.90;20.13;;;;;;;-2.63;76.28;94177.03;5031290;28;20049;-69
2020/12/04 01:42:00;;;;;;;49.05;19.58;;;;;;;-2.66;76.40;94176.81;5031182;28;20504;-69
2020/12/04 01:44:26;;;;;;;56.45;21.35;;;;;;;-2.70;76.45;94171.28;5030930;28;20057;-69
2020/12/04 01:46:52;;;;;;;56.90;20.83;;;;;;;-2.71;76.57;94158.25;5031076;28;20053;-69
2020/12/04 01:49:18;;;;;;;52.15;19.80;;;;;;;-2.70;76.53;94154.50;5030671;28;20046;-69
2020/12/04 01:51:45;;;;;;;53.95;20.40;;;;;;;-2.75;76.85;94158.03;5031143;28;20045;-69
2020/12/04 01:54:12;;;;;;;52.97;20.17;;;;;;;-2.75;76.80;94157.22;5015435;28;20042;-69
2020/12/04 01:56:38;;;;;;;55.35;22.58;;;;;;;-2.77;76.92;94159.38;5011302;28;20053;-69
2020/12/04 01:59:05;;;;;;;53.80;21.98;;;;;;;-2.79;77.05;94164.22;5010662;28;20498;-69
2020/12/04 02:01:34;;;;;;;58.17;21.40;;;;;;;-2.82;77.19;94173.56;5011175;28;20050;-69
2020/12/04 02:04:00;;;;;;;57.33;20.98;;;;;;;-2.80;77.07;94170.63;5011124;28;20042;-69
2020/12/04 02:06:40;;;;;;;56.58;20.98;;;;;;;-2.81;77.08;94174.38;5010839;28;20052;-69
2020/12/04 02:09:10;;;;;;;65.47;20.30;;;;;;;-2.77;76.97;94172.69;5010777;28;20045;-70
2020/12/04 02:11:37;;;;;;;61.03;21.17;;;;;;;-2.74;76.69;94169.47;5010942;28;20049;-69
2020/12/04 02:14:05;;;;;;;62.67;20.60;;;;;;;-2.75;76.49;94160.69;5010352;28;20053;-69
2020/12/04 02:16:32;;;;;;;56.28;21.58;;;;;;;-2.77;76.35;94154.84;5011033;28;20042;-69
2020/12/04 02:18:58;;;;;;;56.65;21.55;;;;;;;-2.77;76.57;94143.38;5010876;28;20045;-68
2020/12/04 02:21:25;;;;;;;54.70;21.52;;;;;;;-2.77;76.42;94154.84;5010566;28;20405;-69
2020/12/04 02:23:52;;;;;;;52.65;20.52;;;;;;;-2.79;76.44;94157.00;5010384;28;20070;-68
2020/12/04 02:26:20;;;;;;;55.40;20.63;;;;;;;-2.79;76.31;94167.66;5010433;28;20085;-69
2020/12/04 02:28:47;;;;;;;56.53;20.67;;;;;;;-2.83;76.46;94161.31;5010754;28;20061;-68
2020/12/04 02:31:13;;;;;;;57.55;21.65;;;;;;;-2.83;76.35;94150.66;5010005;28;20049;-69
2020/12/04 02:33:39;;;;;;;58.30;21.63;;;;;;;-2.84;76.37;94154.41;5010708;28;20045;-69
2020/12/04 02:36:06;;;;;;;51.38;19.83;;;;;;;-2.86;76.41;94151.25;5010141;28;20037;-69
2020/12/04 02:38:33;;;;;;;62.97;22.10;;;;;;;-2.88;76.41;94148.06;5010621;28;20042;-69
2020/12/04 02:40:59;;;;;;;56.53;21.50;;;;;;;-2.93;76.64;94145.47;5010233;28;20046;-69
2020/12/04 02:43:26;;;;;;;57.85;21.25;;;;;;;-2.92;76.70;94136.44;5010170;28;20058;-69
2020/12/04 02:45:52;;;;;;;60.45;23.23;;;;;;;-2.95;76.92;94127.13;5010568;28;20405;-69
2020/12/04 02:48:19;;;;;;;60.72;23.00;;;;;;;-2.96;76.94;94117.56;5009848;28;20049;-69
2020/12/04 02:50:45;;;;;;;69.18;23.73;;;;;;;-2.97;77.15;94107.22;5010351;28;20046;-69
2020/12/04 02:53:11;;;;;;;57.65;22.90;;;;;;;-2.99;77.32;94104.03;5005607;28;20053;-69
2020/12/04 02:55:38;;;;;;;58.88;22.48;;;;;;;-2.96;77.23;94103.47;5010464;28;20038;-68
2020/12/04 02:58:04;;;;;;;107.88;30.70;;;;;;;-2.97;77.36;94108.00;5004580;28;20073;-69
2020/12/04 03:00:30;;;;;;;60.50;22.90;;;;;;;-2.97;77.51;94108.00;5008394;28;20050;-69
2020/12/04 03:02:56;;;;;;;59.75;22.77;;;;;;;-2.94;77.48;94102.06;5010226;28;20050;-69
2020/12/04 03:05:22;;;;;;;65.05;22.42;;;;;;;-2.99;77.70;94099.47;5009708;28;20052;-69
2020/12/04 03:07:48;;;;;;;60.20;22.10;;;;;;;-2.98;77.74;94085.09;5010185;28;20038;-69
2020/12/04 03:10:14;;;;;;;66.57;23.63;;;;;;;-3.01;77.61;94091.00;5009574;28;20044;-69
2020/12/04 03:12:41;;;;;;;62.47;24.38;;;;;;;-2.98;77.74;94090.41;5010053;28;20460;-69
2020/12/04 03:15:09;;;;;;;64.68;24.25;;;;;;;-2.96;77.70;94084.81;5009428;28;20047;-69
2020/12/04 03:17:35;;;;;;;61.72;23.38;;;;;;;-2.99;77.76;94083.50;5010189;28;20046;-69
2020/12/04 03:20:01;;;;;;;66.25;24.30;;;;;;;-3.02;77.71;94084.09;5009499;28;20049;-70
2020/12/04 03:22:28;;;;;;;61.03;22.83;;;;;;;-2.99;77.67;94083.50;5010002;28;20049;-69
2020/12/04 03:24:54;;;;;;;61.88;23.55;;;;;;;-2.98;77.73;94077.09;5009938;28;20046;-69
2020/12/04 03:27:20;;;;;;;66.28;23.52;;;;;;;-2.99;77.64;94062.22;5009442;28;20057;-69
2020/12/04 03:29:47;;;;;;;61.50;22.30;;;;;;;-2.96;77.74;94060.84;5011570;28;20042;-69
2020/12/04 03:32:14;;;;;;;61.58;22.73;;;;;;;-2.92;77.63;94052.00;5009410;28;20073;-69
2020/12/04 03:34:40;;;;;;;70.97;23.60;;;;;;;-2.89;77.62;94051.41;5009796;28;20049;-69
2020/12/04 03:37:06;;;;;;;57.00;23.20;;;;;;;-2.86;77.68;94044.72;5009500;28;20046;-70
2020/12/04 03:39:32;;;;;;;60.05;23.88;;;;;;;-2.89;77.73;94040.75;5009708;28;20065;-69
2020/12/04 03:41:58;;;;;;;61.15;22.80;;;;;;;-2.86;77.73;94050.06;5009731;28;20045;-69
2020/12/04 03:44:24;;;;;;;54.67;21.77;;;;;;;-2.84;77.71;94053.22;5013267;28;20046;-69
2020/12/04 03:46:51;;;;;;;57.70;22.63;;;;;;;-2.82;77.75;94044.91;5013854;28;20046;-69
2020/12/04 03:49:17;;;;;;;63.30;22.95;;;;;;;-2.81;77.67;94049.97;5013133;28;20037;-69
2020/12/04 03:51:43;;;;;;;59.85;22.67;;;;;;;-2.79;77.65;94039.81;5013764;28;20042;-69
2020/12/04 03:54:10;;;;;;;54.30;21.88;;;;;;;-2.78;77.80;94032.59;5013049;28;20049;-69
2020/12/04 03:56:36;;;;;;;54.00;21.42;;;;;;;-2.75;77.79;94034.69;5013479;28;20065;-69
2020/12/04 03:59:02;;;;;;;58.90;22.70;;;;;;;-2.76;77.68;94022.47;5014827;28;20042;-69
2020/12/04 04:01:28;;;;;;;61.60;21.70;;;;;;;-2.71;77.63;94025.06;5013449;28;20077;-69
2020/12/04 04:03:55;;;;;;;65.80;22.55;;;;;;;-2.68;77.58;94032.44;5013465;28;20069;-69
2020/12/04 04:06:21;;;;;;;61.28;20.98;;;;;;;-2.68;77.53;94019.91;5013021;28;20050;-69
2020/12/04 04:08:47;;;;;;;63.28;21.95;;;;;;;-2.64;77.67;94015.59;5013621;28;20572;-69
2020/12/04 04:11:13;;;;;;;59.88;21.63;;;;;;;-2.61;77.64;94011.56;5012931;28;20557;-69
2020/12/04 04:13:39;;;;;;;57.45;20.88;;;;;;;-2.56;77.35;94011.44;5013397;28;20045;-69
2020/12/04 04:16:05;;;;;;;58.00;21.20;;;;;;;-2.53;77.09;94016.22;5012844;28;20065;-69
2020/12/04 04:18:32;;;;;;;56.72;21.92;;;;;;;-2.52;77.08;94007.13;5013232;28;20046;-69
2020/12/04 04:20:59;;;;;;;62.17;21.38;;;;;;;-2.51;77.02;94008.69;5013055;28;20056;-69
2020/12/04 04:23:25;;;;;;;60.72;22.38;;;;;;;-2.52;76.97;94009.00;5012713;28;20037;-69
2020/12/04 04:25:51;;;;;;;57.70;20.67;;;;;;;-2.47;76.94;94015.03;5012961;28;20052;-69
2020/12/04 04:28:17;;;;;;;57.75;20.88;;;;;;;-2.42;76.89;94017.59;5012276;28;20141;-69
2020/12/04 04:30:43;;;;;;;51.90;20.83;;;;;;;-2.40;76.55;94031.44;5014638;28;20084;-69
2020/12/04 04:33:09;;;;;;;54.95;22.25;;;;;;;-2.42;76.65;94020.28;5012651;28;20042;-69
2020/12/04 04:35:35;;;;;;;56.38;21.27;;;;;;;-2.39;76.62;94022.38;5012956;28;20053;-69
2020/12/04 04:38:01;;;;;;;60.05;22.05;;;;;;;-2.43;76.93;94005.38;5012549;28;20042;-72
2020/12/04 04:40:28;;;;;;;54.25;22.15;;;;;;;-2.42;76.94;94012.28;5012592;28;20053;-69
2020/12/04 04:43:10;;;;;;;61.95;23.60;;;;;;;-2.36;76.79;94011.09;5012751;28;20042;-69
2020/12/04 04:45:39;;;;;;;57.17;21.98;;;;;;;-2.32;76.76;94021.19;5010381;28;20045;-69
2020/12/04 04:48:10;;;;;;;56.85;22.45;;;;;;;-2.34;76.75;94013.50;5012269;28;20042;-69
2020/12/04 04:50:36;;;;;;;58.38;21.65;;;;;;;-2.36;76.86;94004.97;5012654;28;20050;-69
2020/12/04 04:53:03;;;;;;;57.67;23.38;;;;;;;-2.34;76.95;94002.81;5011899;28;20470;-69
2020/12/04 04:55:30;;;;;;;55.05;21.67;;;;;;;-2.32;76.82;94005.19;5012306;28;20049;-69
2020/12/04 04:57:58;;;;;;;62.40;21.80;;;;;;;-2.30;76.81;94013.69;5012242;28;20045;-69
2020/12/04 05:00:25;;;;;;;54.08;21.58;;;;;;;-2.27;76.60;94016.56;5013614;28;20048;-69
2020/12/04 05:02:51;;;;;;;61.40;23.25;;;;;;;-2.25;76.38;94016.25;5012188;28;20041;-69
2020/12/04 05:05:17;;;;;;;56.58;21.13;;;;;;;-2.24;76.40;94013.31;5011802;28;20050;-69
2020/12/04 05:07:43;;;;;;;57.22;23.27;;;;;;;-2.25;76.66;94003.72;5012318;28;20401;-69
2020/12/04 05:10:11;;;;;;;59.50;22.13;;;;;;;-2.24;76.48;94007.19;5011572;28;20128;-69
2020/12/04 05:12:38;;;;;;;55.38;22.17;;;;;;;-2.21;76.58;94012.69;5012083;28;20125;-69
2020/12/04 05:15:22;;;;;;;55.42;22.10;;;;;;;-2.19;75.97;94010.56;5011804;28;20038;-69
2020/12/04 05:18:06;;;;;;;51.78;21.05;;;;;;;-2.23;76.31;94019.44;5011919;28;20559;-69
2020/12/04 05:20:37;;;;;;;55.35;20.90;;;;;;;-2.25;76.69;94013.59;5011289;28;20045;-69
2020/12/04 05:23:03;;;;;;;60.00;21.67;;;;;;;-2.25;76.52;94006.38;5011665;28;20041;-69
2020/12/04 05:25:38;;;;;;;58.45;22.33;;;;;;;-2.24;76.70;94017.84;5011921;28;20605;-69
2020/12/04 05:28:08;;;;;;;58.45;20.75;;;;;;;-2.24;76.60;94007.19;5011220;28;20044;-69
2020/12/04 05:30:34;;;;;;;56.65;21.83;;;;;;;-2.27;76.55;94008.56;5013684;28;20045;-69
2020/12/04 05:33:02;;;;;;;54.20;21.52;;;;;;;-2.21;76.77;94001.25;5011742;28;20046;-69
2020/12/04 05:35:28;;;;;;;61.22;22.52;;;;;;;-2.17;76.69;94007.59;5011459;28;20037;-70
2020/12/04 05:38:08;;;;;;;57.25;22.45;;;;;;;-2.14;76.85;94006.97;5011701;28;20052;-69
2020/12/04 05:40:35;;;;;;;62.70;22.42;;;;;;;-2.15;76.73;94006.19;5011238;28;20069;-69
2020/12/04 05:43:01;;;;;;;58.13;22.13;;;;;;;-2.14;76.74;94015.78;5011299;28;20192;-70
2020/12/04 05:45:27;;;;;;;59.10;21.75;;;;;;;-2.16;76.69;94019.81;5011634;28;20050;-69
2020/12/04 05:47:54;;;;;;;58.80;22.48;;;;;;;-2.13;76.33;94024.56;5011631;28;20511;-69
2020/12/04 05:50:20;;;;;;;55.78;21.77;;;;;;;-2.17;76.51;94015.59;5011023;28;20390;-69
2020/12/04 05:52:48;;;;;;;57.45;22.15;;;;;;;-2.20;76.45;94013.50;5011358;28;20096;-69
2020/12/04 05:55:15;;;;;;;60.95;21.33;;;;;;;-2.29;76.64;94015.28;5011055;28;20524;-69
2020/12/04 05:57:50;;;;;;;55.17;20.00;;;;;;;-2.36;76.61;94019.09;5010948;28;20069;-69
2020/12/04 06:00:17;;;;;;;58.90;22.23;;;;;;;-2.37;76.93;94022.06;5012732;28;20057;-69
2020/12/04 06:02:43;;;;;;;57.45;21.52;;;;;;;-2.36;77.06;94032.41;5011163;28;20069;-69
2020/12/04 06:05:11;;;;;;;58.65;21.50;;;;;;;-2.39;76.96;94033.03;5010290;28;20053;-69
2020/12/04 06:07:39;;;;;;;62.92;21.25;;;;;;;-2.39;76.97;94025.03;5011392;28;20104;-69
2020/12/04 06:10:06;;;;;;;61.63;22.13;;;;;;;-2.38;77.03;94025.81;5010650;28;20042;-69
2020/12/04 06:12:32;;;;;;;55.92;21.42;;;;;;;-2.37;77.00;94019.41;5011231;28;20042;-69
2020/12/04 06:15:25;;;;;;;63.80;22.85;;;;;;;-2.33;77.22;94020.41;5011178;28;20046;-69
2020/12/04 06:17:52;;;;;;;55.90;21.73;;;;;;;-2.33;77.38;94015.06;5010943;28;20076;-69
2020/12/04 06:20:20;;;;;;;57.05;21.10;;;;;;;-2.27;77.38;94023.75;5010135;28;20277;-69
2020/12/04 06:23:06;;;;;;;56.65;21.40;;;;;;;-2.26;77.46;94033.34;5011048;28;20053;-69
2020/12/04 06:26:00;;;;;;;60.30;22.00;;;;;;;-2.21;77.39;94023.38;5010844;28;20408;-69
2020/12/04 06:28:28;;;;;;;;;;;;;;;-2.17;77.36;94012.91;5006034;28;20038;-69
2020/12/04 06:31:05;;;;;;;54.92;21.25;;;;;;;-2.19;77.44;94015.88;5010979;28;19922;-69
2020/12/04 06:33:43;;;;;;;54.33;20.05;;;;;;;-2.17;77.25;94034.25;5012051;28;20052;-69
2020/12/04 06:36:10;;;;;;;53.17;20.73;;;;;;;-2.15;77.11;94040.06;5012352;28;20069;-69
2020/12/04 06:38:46;;;;;;;55.30;20.73;;;;;;;-2.15;77.07;94040.06;5010800;28;20041;-69
2020/12/04 06:41:23;;;;;;;54.72;21.45;;;;;;;-2.14;77.08;94044.31;5010474;28;20398;-71
2020/12/04 06:43:51;;;;;;;56.80;22.10;;;;;;;-2.15;77.13;94037.41;5010920;28;20728;-69
2020/12/04 06:46:29;;;;;;;51.22;20.55;;;;;;;-2.20;77.05;94032.16;5010229;28;20762;-69
2020/12/04 06:49:23;;;;;;;57.80;21.90;;;;;;;-2.25;77.04;94032.25;5010781;28;20050;-69
2020/12/04 06:51:59;;;;;;;55.55;22.92;;;;;;;-2.29;77.21;94034.72;5009180;28;20038;-69
2020/12/04 06:54:26;;;;;;;58.08;21.38;;;;;;;-2.33;77.33;94041.72;5009913;28;20136;-75
2020/12/04 06:56:52;;;;;;;60.30;21.50;;;;;;;-2.31;77.79;94049.41;5008640;28;20119;-76
2020/12/04 06:59:28;;;;;;;56.08;22.42;;;;;;;-2.33;78.12;94035.59;5008988;28;20046;-75
2020/12/04 07:01:59;;;;;;;59.67;23.58;;;;;;;-2.32;77.74;94037.97;5009919;28;20519;-73
2020/12/04 07:04:28;;;;;;;66.10;23.23;;;;;;;-2.34;77.92;94031.38;5003683;28;20147;-73
2020/12/04 07:07:01;;;;;;;67.53;23.42;;;;;;;-2.39;78.25;94027.69;5006116;28;20050;-73
2020/12/04 07:09:27;;;;;;;59.05;21.10;;;;;;;-2.40;78.19;94015.47;5006392;28;20042;-73
2020/12/04 07:11:54;;;;;;;62.58;22.30;;;;;;;-2.40;78.10;94028.78;5006655;28;20127;-73
2020/12/04 07:14:21;;;;;;;59.25;21.45;;;;;;;-2.36;77.95;94029.75;5006566;28;20100;-73
2020/12/04 07:16:49;;;;;;;63.03;20.73;;;;;;;-2.39;77.78;94016.25;5005798;28;20069;-73
2020/12/04 07:19:16;;;;;;;58.67;21.35;;;;;;;-2.38;78.09;94017.81;5006530;28;20077;-73
2020/12/04 07:21:42;;;;;;;61.80;23.05;;;;;;;-2.39;77.98;94022.38;5006711;28;20571;-73
2020/12/04 07:24:08;;;;;;;62.92;22.27;;;;;;;-2.34;78.15;94018.03;5006413;28;20124;-72
2020/12/04 07:26:35;;;;;;;63.40;21.48;;;;;;;-2.33;78.27;94022.28;5006762;28;20050;-73
2020/12/04 07:29:01;;;;;;;60.08;22.25;;;;;;;-2.29;78.29;94020.59;5006476;28;20052;-73
2020/12/04 07:31:27;;;;;;;64.00;23.08;;;;;;;-2.25;78.21;94026.91;5006912;28;20053;-73
2020/12/04 07:33:55;;;;;;;66.47;22.02;;;;;;;-2.20;78.31;94030.28;5006213;28;20053;-73
2020/12/04 07:36:23;;;;;;;54.47;20.42;;;;;;;-2.10;78.24;94023.97;4986885;28;20298;-73
2020/12/04 07:38:54;;;;;;;61.75;21.88;;;;;;;-2.01;77.88;94027.53;4987112;28;20054;-73
2020/12/04 07:41:32;;;;;;;58.22;22.60;;;;;;;-1.87;77.83;94028.34;4986639;28;20050;-73
2020/12/04 07:44:05;;;;;;;63.47;22.73;;;;;;;-1.69;77.80;94028.53;4986961;28;20105;-74
2020/12/04 07:46:31;;;;;;;59.80;22.38;;;;;;;-1.60;77.33;94024.06;4987009;28;20525;-73
2020/12/04 07:49:02;;;;;;;60.53;22.90;;;;;;;-1.49;76.90;94016.66;4987456;28;20062;-73
2020/12/04 07:51:30;;;;;;;55.38;21.63;;;;;;;-1.35;76.59;94007.53;4986608;28;20051;-74
2020/12/04 07:53:57;;;;;;;56.33;21.63;;;;;;;-1.13;76.53;94011.31;4986879;28;20509;-74
2020/12/04 07:56:26;;;;;;;59.72;22.42;;;;;;;-0.80;75.67;94007.34;4986674;28;20049;-73
2020/12/04 07:59:01;;;;;;;52.72;20.48;;;;;;;-0.42;74.03;94012.28;5001889;28;20132;-74
2020/12/04 08:01:28;;;;;;;49.15;20.10;;;;;;;-0.28;72.43;94006.88;5005995;28;20053;-74
2020/12/04 08:03:55;;;;;;;53.60;20.17;;;;;;;-0.29;72.04;94000.75;5006081;28;20445;-74
2020/12/04 08:06:27;;;;;;;51.10;20.10;;;;;;;-0.30;72.43;93993.81;5006319;28;20096;-74
2020/12/04 08:09:12;;;;;;;57.60;21.30;;;;;;;-0.23;72.35;93993.38;5006273;28;20053;-73
2020/12/04 08:11:40;;;;;;;58.75;21.33;;;;;;;-0.09;72.53;93988.72;5006438;28;20560;-74
2020/12/04 08:14:06;;;;;;;53.15;21.55;;;;;;;0.02;72.22;93988.44;5005829;28;20050;-73
2020/12/04 08:16:33;;;;;;;70.75;31.27;;;;;;;0.02;72.17;93986.56;5006591;28;20045;-74
2020/12/04 08:19:08;;;;;;;50.65;20.23;;;;;;;-0.10;71.56;93983.69;5006453;28;20718;-73
2020/12/04 08:21:34;;;;;;;53.83;22.13;;;;;;;-0.22;71.95;93986.91;5006223;28;20175;-74
2020/12/04 08:24:01;;;;;;;53.88;20.83;;;;;;;-0.24;72.38;93988.34;5006341;28;20048;-73
2020/12/04 08:26:28;;;;;;;53.00;21.80;;;;;;;-0.23;72.53;93993.38;5006478;28;20065;-73
2020/12/04 08:28:55;;;;;;;53.63;21.90;;;;;;;-0.31;72.54;93989.56;5007517;28;20063;-73
2020/12/04 08:31:25;;;;;;;56.63;21.65;;;;;;;-0.31;73.04;93992.25;5008914;28;20050;-74
2020/12/04 08:33:51;;;;;;;56.55;22.95;;;;;;;-0.29;73.11;93987.38;5009980;28;20133;-74
2020/12/04 08:36:18;;;;;;;55.85;22.02;;;;;;;-0.25;73.26;93986.75;5009234;28;20061;-73
2020/12/04 08:38:51;;;;;;;65.18;23.40;;;;;;;-0.23;73.26;93997.94;5009401;28;20061;-73
2020/12/04 08:41:18;;;;;;;57.95;22.30;;;;;;;-0.23;73.16;93997.94;5009398;28;20058;-73
2020/12/04 08:43:47;;;;;;;60.97;23.35;;;;;;;-0.22;73.29;93999.50;5009007;28;20132;-74
2020/12/04 08:46:14;;;;;;;56.95;22.40;;;;;;;-0.23;73.22;94003.28;5008897;28;20123;-73
2020/12/04 08:48:41;;;;;;;57.42;23.85;;;;;;;-0.19;73.03;94001.56;5009684;28;20054;-73
2020/12/04 08:51:08;;;;;;;55.70;23.13;;;;;;;-0.19;73.22;94005.03;5009148;28;20057;-74
2020/12/04 08:53:35;;;;;;;58.67;23.45;;;;;;;-0.20;73.30;94013.38;5009437;28;20041;-72
2020/12/04 08:56:02;;;;;;;54.38;22.85;;;;;;;-0.16;73.54;94019.66;5008724;28;20061;-73
2020/12/04 08:58:29;;;;;;;60.83;24.33;;;;;;;-0.11;73.56;94016.84;5008303;28;20053;-73
2020/12/04 09:00:58;;;;;;;59.83;23.58;;;;;;;-0.03;73.55;94018.81;5008598;28;20137;-73
2020/12/04 09:03:26;;;;;;;50.95;21.92;;;;;;;-0.04;72.96;94030.59;5008626;28;20049;-73
2020/12/04 09:05:52;;;;;;;62.53;24.00;;;;;;;-0.03;73.44;94034.84;5009258;28;20136;-73
2020/12/04 09:08:18;;;;;;;53.97;22.65;;;;;;;0.06;73.60;94033.00;5008595;28;20057;-73
2020/12/04 09:10:44;;;;;;;57.88;23.23;;;;;;;0.15;73.44;94031.13;5009213;28;20050;-73
2020/12/04 09:13:11;;;;;;;51.08;22.30;;;;;;;0.21;73.14;94035.28;5008548;28;20100;-73
2020/12/04 09:15:37;;;;;;;58.30;22.48;;;;;;;0.27;73.08;94027.91;5008967;28;20046;-73
2020/12/04 09:18:04;;;;;;;52.17;22.48;;;;;;;0.33;72.92;94031.22;5008843;28;20046;-73
2020/12/04 09:20:30;;;;;;;60.45;24.70;;;;;;;0.36;72.72;94019.88;5008915;28;20041;-74
2020/12/04 09:22:57;;;;;;;59.45;22.17;;;;;;;0.39;72.72;94017.38;5008590;28;20443;-73
2020/12/04 09:25:23;;;;;;;57.35;24.17;;;;;;;0.47;72.68;94011.28;5008512;28;20054;-74
2020/12/04 09:27:50;;;;;;;61.83;23.80;;;;;;;0.56;72.38;94000.56;5008413;28;20515;-74
2020/12/04 09:30:18;;;;;;;52.90;22.45;;;;;;;0.63;72.11;94002.81;5008531;28;20065;-74
2020/12/04 09:32:45;;;;;;;55.63;22.77;;;;;;;0.71;71.78;93989.41;5008514;28;20049;-73
2020/12/04 09:35:13;;;;;;;59.90;24.23;;;;;;;0.81;72.08;93988.31;5008054;28;20049;-74
2020/12/04 09:37:40;;;;;;;50.55;21.92;;;;;;;0.89;72.08;93984.06;5008496;28;20046;-73
2020/12/04 09:40:08;;;;;;;57.40;22.65;;;;;;;0.91;71.63;93984.53;5006931;28;20069;-73
2020/12/04 09:42:34;;;;;;;54.42;22.58;;;;;;;0.96;71.59;93987.06;5008120;28;20132;-73
2020/12/04 09:45:01;;;;;;;54.30;22.52;;;;;;;0.99;71.50;93983.75;5008216;28;20137;-73
2020/12/04 09:47:30;;;;;;;54.28;21.63;;;;;;;0.92;71.15;93978.88;5008612;28;20054;-73
2020/12/04 09:49:56;;;;;;;57.47;22.65;;;;;;;0.91;71.03;93971.16;5008629;28;20045;-74
2020/12/04 09:52:24;;;;;;;58.80;22.25;;;;;;;0.86;70.77;93963.25;5007845;28;20069;-73
2020/12/04 09:54:50;;;;;;;50.08;21.85;;;;;;;0.85;70.96;93967.06;5008042;28;20049;-73
2020/12/04 09:57:17;;;;;;;53.08;21.17;;;;;;;0.84;71.13;93960.13;5007999;28;20065;-73
2020/12/04 09:59:43;;;;;;;51.08;21.52;;;;;;;0.81;71.02;93960.75;5008240;28;20046;-73
2020/12/04 10:02:10;;;;;;;57.83;24.52;;;;;;;0.84;71.37;93946.72;5007582;28;20057;-73
2020/12/04 10:04:37;;;;;;;57.13;22.23;;;;;;;0.91;71.64;93941.69;5007950;28;20060;-73
2020/12/04 10:07:03;;;;;;;53.33;22.23;;;;;;;0.92;71.57;93935.22;5007648;28;20208;-72
2020/12/04 10:09:30;;;;;;;52.40;22.98;;;;;;;0.90;71.71;93932.06;5008188;28;20509;-73
2020/12/04 10:11:56;;;;;;;54.17;22.10;;;;;;;0.91;71.48;93933.63;5007606;28;20057;-73
2020/12/04 10:14:24;;;;;;;57.80;22.80;;;;;;;0.92;71.48;93936.00;5007082;28;20049;-73
2020/12/04 10:16:51;;;;;;;52.78;21.58;;;;;;;0.95;71.69;93926.53;5007610;28;20136;-75
2020/12/04 10:19:18;;;;;;;51.00;22.85;;;;;;;0.93;71.67;93926.06;5007324;28;20065;-73
2020/12/04 10:21:45;;;;;;;55.22;23.20;;;;;;;0.87;71.69;93921.97;5007854;28;20184;-73
2020/12/04 10:24:12;;;;;;;60.42;23.73;;;;;;;0.82;71.46;93914.09;5007562;28;20072;-75
2020/12/04 10:26:40;;;;;;;53.78;22.58;;;;;;;0.80;72.13;93913.63;5008025;28;20046;-73
2020/12/04 10:29:07;;;;;;;54.90;22.10;;;;;;;0.84;72.27;93917.25;5007114;28;20050;-73
2020/12/04 10:31:33;;;;;;;57.13;23.40;;;;;;;0.84;72.58;93914.59;5007780;28;20057;-73
2020/12/04 10:33:59;;;;;;;58.15;24.15;;;;;;;0.84;72.66;93911.91;5007066;28;20045;-74
2020/12/04 10:36:26;;;;;;;60.15;23.08;;;;;;;0.80;72.08;93902.91;5007313;28;20064;-73
2020/12/04 10:38:52;;;;;;;57.78;23.30;;;;;;;0.75;72.20;93896.59;5007267;28;20046;-73
2020/12/04 10:41:18;;;;;;;53.08;22.70;;;;;;;0.78;72.63;93898.66;5007146;28;20053;-73
2020/12/04 10:43:45;;;;;;;60.92;23.85;;;;;;;0.78;72.57;93892.50;5007279;28;20042;-73
2020/12/04 10:46:11;;;;;;;56.13;22.58;;;;;;;0.77;72.92;93901.63;5007276;28;20792;-73
2020/12/04 10:48:37;;;;;;;56.85;23.30;;;;;;;0.77;72.60;93902.41;5007648;28;20084;-74
2020/12/04 10:51:03;;;;;;;54.88;23.70;;;;;;;0.75;72.69;93883.22;5006700;28;20587;-73
2020/12/04 10:53:29;;;;;;;57.22;24.25;;;;;;;0.76;72.70;93884.78;5007026;28;20409;-73
2020/12/04 10:55:55;;;;;;;57.30;23.05;;;;;;;0.81;72.85;93875.00;5007285;28;20409;-73
2020/12/04 10:58:21;;;;;;;55.92;24.10;;;;;;;0.83;72.95;93872.78;5006818;28;20057;-74
2020/12/04 11:00:49;;;;;;;55.60;23.45;;;;;;;0.81;73.07;93870.44;5007264;28;20064;-74
2020/12/04 11:03:23;;;;;;;55.65;23.10;;;;;;;0.81;73.10;93862.41;5006589;28;20050;-73
2020/12/04 11:05:48;;;;;;;56.95;23.30;;;;;;;0.81;73.16;93853.59;5006946;28;20564;-73
2020/12/04 11:08:15;;;;;;;58.38;23.55;;;;;;;0.77;73.04;93838.13;5006899;28;20053;-74
2020/12/04 11:10:42;;;;;;;52.92;22.33;;;;;;;0.78;73.56;93841.59;5006764;28;20563;-74
2020/12/04 11:13:08;;;;;;;57.38;24.33;;;;;;;0.81;73.61;93845.53;5006091;28;20120;-73
2020/12/04 11:15:35;;;;;;;57.95;22.60;;;;;;;0.77;73.38;93856.09;5006971;28;20068;-73
2020/12/04 11:18:02;;;;;;;55.53;22.58;;;;;;;0.80;73.65;93852.81;5006785;28;20049;-73
2020/12/04 11:20:28;;;;;;;51.17;21.25;;;;;;;0.85;73.69;93851.84;5007072;28;20584;-74
2020/12/04 11:22:54;;;;;;;51.53;20.75;;;;;;;0.83;73.27;93846.78;5006893;28;20045;-73